Impacts METAR Board INFO
IDs:

KORD - Chicago/O'Hare Intl, IL, US

Updated at: 2124 UTC 18 Jan 2018
Potential Impact None Slight Moderate High
Time18/09Z 18/10Z 18/11Z 18/12Z 18/13Z 18/14Z 18/15Z 18/16Z 18/17Z 18/18Z 18/19Z 18/20Z 18/21Z
VIS10 10 10 10 10 10 10 10 10 10 10 10 10
CIG-- -- -- -- -- -- -- -- 250 -- -- -- --
CoverCLRCLRCLRCLRFEWFEWFEWFEWBKNSCTFEWFEWFEW
FltCatVFRVFRVFRVFRVFRVFRVFRVFRVFRVFRVFRVFRVFR
WX--------------------------
WDir240250250240230230240220260240230240220
WSpd11 10 10 12 13 13 17 14 14 14 18 14 14
WGst19 -- 18 18 -- -- 23 23 18 -- 23 19 21
Raw hourly METARs
KORD 180851Z 24011G19KT 10SM CLR M08/M13 A3015 RMK AO2 SLP223 T10831128 56012
KORD 180951Z 25010KT 10SM CLR M08/M13 A3015 RMK AO2 SLP220 T10831128
KORD 181051Z 25010G18KT 10SM CLR M08/M13 A3015 RMK AO2 SLP222 T10831128
KORD 181151Z 24012G18KT 10SM CLR M08/M13 A3014 RMK AO2 SLP216 4/002 T10831128 11078 21083 58006
KORD 181251Z 23013KT 10SM FEW250 M08/M13 A3014 RMK AO2 SLP218 T10831128
KORD 181351Z 23013KT 10SM FEW250 M08/M12 A3011 RMK AO2 SLP208 T10831122
KORD 181451Z 24017G23KT 10SM FEW250 M07/M12 A3011 RMK AO2 SLP207 T10721122 58009
KORD 181551Z 22014G23KT 10SM FEW250 M06/M11 A3008 RMK AO2 SLP195 T10561111
KORD 181651Z 26014G18KT 10SM BKN250 M04/M11 A3010 RMK AO2 SLP203 T10391106
KORD 181751Z 24014KT 10SM SCT250 M03/M11 A3008 RMK AO2 SLP196 4/002 933002 T10331106 11033 21089 56010
KORD 181851Z 23018G23KT 10SM FEW250 M02/M09 A3003 RMK AO2 SLP177 T10171089
KORD 181951Z 24014G19KT 10SM FEW250 00/M08 A3000 RMK AO2 SLP170 T00001083
KORD 182051Z 22014G21KT 10SM FEW250 00/M08 A2998 RMK AO2 SLP163 T00001083 56031